createdAt,value
2022-10-31T00:01:31.362Z,13.85
2022-10-31T00:03:57.889Z,18.20
2022-10-31T00:06:25.006Z,14.98
2022-10-31T00:08:56.010Z,12.48
2022-10-31T00:11:22.826Z,11.55
2022-10-31T00:13:49.346Z,13.48
2022-10-31T00:16:16.434Z,16.48
2022-10-31T00:18:43.067Z,18.10
2022-10-31T00:21:09.533Z,19.25
2022-10-31T00:23:36.146Z,15.05
2022-10-31T00:26:04.759Z,13.77
2022-10-31T00:28:31.789Z,12.80
2022-10-31T00:31:00.025Z,14.80
2022-10-31T00:33:26.461Z,17.70
2022-10-31T00:35:52.845Z,13.68
2022-10-31T00:38:19.275Z,16.63
2022-10-31T00:40:45.710Z,18.05
2022-10-31T00:43:13.486Z,17.88
2022-10-31T00:45:39.963Z,11.60
2022-10-31T00:48:06.661Z,19.92
2022-10-31T00:50:33.191Z,15.90
2022-10-31T00:52:59.773Z,14.98
2022-10-31T00:55:26.336Z,17.42
2022-10-31T00:57:52.788Z,14.60
2022-10-31T01:00:21.029Z,12.90
2022-10-31T01:02:47.688Z,17.05
2022-10-31T01:05:14.852Z,18.98
2022-10-31T01:07:42.333Z,21.83
2022-10-31T01:10:10.058Z,19.50
2022-10-31T01:12:37.298Z,25.08
2022-10-31T01:15:05.165Z,21.58
2022-10-31T01:17:33.031Z,24.05
2022-10-31T01:19:59.413Z,23.05
2022-10-31T01:22:25.856Z,26.35
2022-10-31T01:24:52.260Z,24.85
2022-10-31T01:27:18.835Z,24.85
2022-10-31T01:29:45.248Z,24.85
2022-10-31T01:32:11.662Z,30.85
2022-10-31T01:34:40.532Z,28.25
2022-10-31T01:37:09.990Z,34.08
2022-10-31T01:39:36.490Z,27.63
2022-10-31T01:42:03.015Z,29.92
2022-10-31T01:44:52.862Z,29.50
2022-10-31T01:47:22.367Z,32.90
2022-10-31T01:49:53.511Z,32.03
2022-10-31T01:52:23.792Z,31.77
2022-10-31T01:54:55.355Z,31.60
2022-10-31T01:57:22.850Z,27.92
2022-10-31T01:59:52.847Z,29.75
2022-10-31T02:02:20.263Z,33.25
2022-10-31T02:04:48.304Z,32.55
2022-10-31T02:07:21.013Z,36.00
2022-10-31T02:09:50.040Z,36.53
2022-10-31T02:12:18.275Z,39.17
2022-10-31T02:14:45.025Z,35.50
2022-10-31T02:17:11.581Z,36.80
2022-10-31T02:19:52.119Z,31.80
2022-10-31T02:22:27.048Z,40.72
2022-10-31T02:25:07.041Z,36.88
2022-10-31T02:28:16.090Z,41.72
2022-10-31T02:31:08.618Z,44.08
2022-10-31T02:33:42.912Z,38.75
2022-10-31T02:36:18.085Z,38.65
2022-10-31T02:38:57.177Z,38.03
2022-10-31T02:41:35.906Z,33.33
2022-10-31T02:44:10.216Z,35.35
2022-10-31T02:46:45.049Z,37.90
2022-10-31T02:49:23.740Z,38.63
2022-10-31T02:51:51.192Z,40.25
2022-10-31T02:54:24.158Z,39.38
2022-10-31T02:56:53.457Z,38.00
2022-10-31T02:59:20.607Z,39.85
2022-10-31T03:02:01.885Z,38.67
2022-10-31T03:05:14.657Z,38.20
2022-10-31T03:07:48.115Z,42.63
2022-10-31T03:10:21.016Z,36.92
2022-10-31T03:12:55.975Z,42.45
2022-10-31T03:15:27.842Z,37.13
2022-10-31T03:18:09.353Z,37.53
2022-10-31T03:20:41.049Z,36.30
2022-10-31T03:23:12.179Z,40.13
2022-10-31T03:25:40.338Z,35.50
2022-10-31T03:28:08.116Z,35.17
2022-10-31T03:30:38.287Z,38.75
2022-10-31T03:33:10.731Z,34.90
2022-10-31T03:35:39.757Z,44.92
2022-10-31T03:38:08.053Z,32.60
2022-10-31T03:40:37.732Z,41.50
2022-10-31T03:43:08.605Z,38.53
2022-10-31T03:45:38.695Z,40.67
2022-10-31T03:48:06.874Z,40.15
2022-10-31T03:50:39.946Z,41.47
2022-10-31T03:53:12.619Z,35.75
2022-10-31T03:55:44.394Z,37.63
2022-10-31T04:00:52.723Z,42.17
2022-10-31T04:03:26.122Z,41.88
2022-10-31T04:05:55.889Z,41.13
2022-10-31T04:08:27.760Z,48.78
2022-10-31T04:10:56.948Z,37.22
2022-10-31T04:13:27.838Z,40.45
2022-10-31T04:15:55.894Z,41.90
2022-10-31T04:18:24.992Z,42.17
2022-10-31T04:21:01.139Z,38.53
2022-10-31T04:23:27.808Z,41.15
2022-10-31T04:25:54.233Z,41.00
2022-10-31T04:28:20.677Z,37.75
2022-10-31T04:30:47.116Z,38.55
2022-10-31T04:33:13.531Z,42.13
2022-10-31T04:35:41.338Z,42.40
2022-10-31T04:38:07.801Z,44.17
2022-10-31T04:40:34.223Z,40.33
2022-10-31T04:43:00.961Z,44.40
2022-10-31T04:45:27.890Z,42.25
2022-10-31T04:47:54.266Z,41.92
2022-10-31T04:50:20.800Z,43.58
2022-10-31T04:52:48.570Z,39.95
2022-10-31T04:55:15.120Z,41.33
2022-10-31T04:57:42.382Z,43.95
2022-10-31T05:00:10.030Z,40.67
2022-10-31T05:02:44.668Z,37.97
2022-10-31T05:05:11.563Z,41.65
2022-10-31T05:07:39.746Z,38.38
2022-10-31T05:10:08.777Z,35.67
2022-10-31T05:12:35.181Z,35.25
2022-10-31T05:15:01.623Z,38.88
2022-10-31T05:17:28.005Z,46.40
2022-10-31T05:19:54.412Z,43.95
2022-10-31T05:22:20.817Z,42.30
2022-10-31T05:24:48.141Z,35.38
2022-10-31T05:27:16.287Z,42.03
2022-10-31T05:29:42.711Z,40.38
2022-10-31T05:32:09.130Z,34.40
2022-10-31T05:34:35.541Z,44.38
2022-10-31T05:37:02.021Z,38.28
2022-10-31T05:39:28.431Z,36.78
2022-10-31T05:41:54.886Z,39.65
2022-10-31T05:44:22.737Z,41.50
2022-10-31T05:46:49.203Z,37.92
2022-10-31T05:49:15.925Z,37.80
2022-10-31T05:51:42.448Z,36.35
2022-10-31T05:54:13.301Z,42.95
2022-10-31T05:56:42.232Z,41.00
2022-10-31T05:59:08.715Z,40.10
2022-10-31T06:01:36.514Z,38.17
2022-10-31T06:04:02.969Z,37.58
2022-10-31T06:06:29.349Z,34.97
2022-10-31T06:08:55.894Z,35.92
2022-10-31T06:11:22.307Z,37.92
2022-10-31T06:13:48.890Z,34.42
2022-10-31T06:16:15.293Z,41.53
2022-10-31T06:18:43.037Z,47.03
2022-10-31T06:21:10.773Z,35.53
2022-10-31T06:23:39.018Z,38.97
2022-10-31T06:26:05.601Z,41.55
2022-10-31T06:28:32.014Z,33.53
2022-10-31T06:30:58.414Z,36.83
2022-10-31T06:33:25.256Z,34.88
2022-10-31T06:35:53.031Z,38.67
2022-10-31T06:38:19.483Z,50.65
2022-10-31T06:40:45.961Z,36.80
2022-10-31T06:43:12.359Z,37.38
2022-10-31T06:45:38.818Z,39.95
2022-10-31T06:48:21.744Z,37.88
2022-10-31T06:50:48.510Z,37.65
2022-10-31T06:53:16.553Z,42.85
2022-10-31T06:55:43.402Z,37.80
2022-10-31T06:58:11.608Z,35.95
2022-10-31T07:00:38.165Z,34.80
2022-10-31T07:03:06.604Z,36.78
2022-10-31T07:05:33.394Z,38.80
2022-10-31T07:08:01.759Z,37.70
2022-10-31T07:10:37.251Z,34.00
2022-10-31T07:13:09.468Z,39.67
2022-10-31T07:15:39.310Z,40.28
2022-10-31T07:18:09.037Z,37.28
2022-10-31T07:20:35.825Z,35.15
2022-10-31T07:23:02.575Z,34.45
2022-10-31T07:25:30.733Z,29.77
2022-10-31T07:27:57.516Z,29.77
2022-10-31T07:30:24.136Z,31.58
2022-10-31T07:32:51.539Z,37.38
2022-10-31T07:35:20.522Z,37.95
2022-10-31T07:37:47.329Z,37.00
2022-10-31T07:40:14.038Z,33.65
2022-10-31T07:42:43.028Z,42.10
2022-10-31T07:45:11.629Z,32.75
2022-10-31T07:47:40.894Z,37.20
2022-10-31T07:50:08.896Z,34.10
2022-10-31T07:52:35.278Z,33.83
2022-10-31T07:55:02.032Z,31.90
2022-10-31T07:57:34.228Z,32.00
2022-10-31T08:00:03.335Z,34.77
2022-10-31T08:02:29.775Z,32.30
2022-10-31T08:04:58.681Z,35.28
2022-10-31T08:07:27.791Z,35.25
2022-10-31T08:09:54.453Z,33.83
2022-10-31T08:12:21.056Z,35.45
2022-10-31T08:14:47.799Z,29.45
2022-10-31T08:17:15.549Z,26.85
2022-10-31T08:19:41.920Z,28.25
2022-10-31T08:22:08.358Z,32.50
2022-10-31T08:24:34.808Z,29.48
2022-10-31T08:27:01.241Z,29.02
2022-10-31T08:29:27.756Z,29.27
2022-10-31T08:31:54.183Z,26.80
2022-10-31T08:34:21.930Z,29.80
2022-10-31T08:36:48.334Z,37.60
2022-10-31T08:39:14.744Z,30.40
2022-10-31T08:41:41.186Z,30.58
2022-10-31T08:44:07.587Z,29.45
2022-10-31T08:46:34.004Z,32.00
2022-10-31T08:49:00.445Z,33.55
2022-10-31T08:51:28.175Z,33.70
2022-10-31T08:53:54.598Z,31.17
2022-10-31T08:56:20.995Z,33.78
2022-10-31T08:58:47.377Z,33.78
2022-10-31T09:01:14.054Z,35.97
2022-10-31T09:03:40.555Z,34.03
2022-10-31T09:06:07.374Z,34.85
2022-10-31T09:08:36.163Z,30.50
2022-10-31T09:11:03.571Z,32.67
2022-10-31T09:13:30.603Z,31.67
2022-10-31T09:15:58.065Z,29.70
2022-10-31T09:18:24.629Z,25.90
2022-10-31T09:20:51.563Z,30.63
2022-10-31T09:23:19.942Z,30.52
2022-10-31T09:25:50.795Z,29.00
2022-10-31T09:28:19.106Z,33.15
2022-10-31T09:30:47.818Z,34.40
2022-10-31T09:33:14.705Z,31.85
2022-10-31T09:35:42.160Z,34.22
2022-10-31T09:38:11.117Z,33.80
2022-10-31T09:40:39.398Z,31.27
2022-10-31T09:43:15.760Z,29.38
2022-10-31T09:45:51.635Z,31.63
2022-10-31T09:48:32.021Z,29.27
2022-10-31T09:51:01.210Z,28.05
2022-10-31T09:53:34.942Z,31.15
2022-10-31T09:56:05.608Z,34.20
2022-10-31T09:58:39.081Z,27.23
2022-10-31T10:03:40.197Z,27.30
2022-10-31T10:06:14.641Z,28.27
2022-10-31T10:08:41.221Z,28.05
2022-10-31T10:11:23.654Z,21.60
2022-10-31T10:14:02.238Z,26.95
2022-10-31T10:16:52.677Z,23.63
2022-10-31T10:19:43.566Z,26.88
2022-10-31T10:22:17.029Z,26.60
2022-10-31T10:25:01.430Z,20.75
2022-10-31T10:27:47.703Z,30.30
2022-10-31T10:30:18.344Z,20.45
2022-10-31T10:32:51.908Z,26.05
2022-10-31T10:35:24.174Z,22.15
2022-10-31T10:37:54.995Z,24.50
2022-10-31T10:40:24.573Z,21.08
2022-10-31T10:42:58.937Z,24.77
2022-10-31T10:45:26.887Z,23.50
2022-10-31T10:48:05.666Z,21.42
2022-10-31T10:50:37.213Z,24.80
2022-10-31T10:53:17.321Z,21.02
2022-10-31T10:55:53.144Z,21.98
2022-10-31T10:58:19.626Z,22.67
2022-10-31T11:00:48.279Z,24.05
2022-10-31T11:03:15.440Z,25.67
2022-10-31T11:05:46.084Z,24.35
2022-10-31T11:08:27.686Z,27.60
2022-10-31T11:10:59.822Z,25.13
2022-10-31T11:13:26.314Z,24.50
2022-10-31T11:15:59.288Z,24.27
2022-10-31T11:18:27.873Z,23.45
2022-10-31T11:20:56.339Z,24.08
2022-10-31T11:23:24.230Z,18.85
2022-10-31T11:25:53.634Z,21.98
2022-10-31T11:28:20.097Z,22.52
2022-10-31T11:30:48.734Z,19.90
2022-10-31T11:33:21.620Z,21.55
2022-10-31T11:35:50.917Z,26.60
2022-10-31T11:38:22.806Z,19.75
2022-10-31T11:40:54.208Z,19.38
2022-10-31T11:43:20.938Z,21.15
2022-10-31T11:45:47.662Z,19.00
2022-10-31T11:48:20.098Z,23.35
2022-10-31T11:50:50.366Z,17.77
2022-10-31T11:53:19.163Z,17.63
2022-10-31T11:55:46.840Z,16.77
2022-10-31T11:58:24.544Z,19.95
2022-10-31T12:00:53.356Z,16.25
2022-10-31T12:03:34.307Z,17.10
2022-10-31T12:06:04.429Z,16.45
2022-10-31T12:08:34.184Z,19.52
2022-10-31T12:11:12.139Z,17.58
2022-10-31T12:13:46.522Z,22.45
2022-10-31T12:16:19.835Z,15.15
2022-10-31T12:19:01.575Z,15.80
2022-10-31T12:21:42.122Z,14.27
2022-10-31T12:24:20.821Z,17.05
2022-10-31T12:26:56.461Z,15.32
2022-10-31T12:29:36.698Z,18.65
2022-10-31T12:32:18.747Z,15.00
2022-10-31T12:35:09.295Z,15.73
2022-10-31T12:37:49.366Z,14.98
2022-10-31T12:40:37.034Z,15.68
2022-10-31T12:43:18.208Z,19.55
2022-10-31T12:45:53.364Z,22.77
2022-10-31T12:48:43.605Z,20.48
2022-10-31T12:51:20.356Z,19.23
2022-10-31T12:54:06.956Z,20.02
2022-10-31T12:56:43.550Z,19.38
2022-10-31T12:59:13.144Z,24.98
2022-10-31T13:01:47.242Z,29.02
2022-10-31T13:04:20.535Z,26.30
2022-10-31T13:06:53.826Z,22.05
2022-10-31T13:09:27.368Z,23.02
2022-10-31T13:14:27.893Z,23.38
2022-10-31T13:16:56.533Z,22.88
2022-10-31T13:19:26.439Z,23.50
2022-10-31T13:22:00.828Z,25.38
2022-10-31T13:24:34.753Z,18.52
2022-10-31T13:27:10.942Z,17.48
2022-10-31T13:29:42.973Z,16.23
2022-10-31T13:32:11.233Z,13.90
2022-10-31T13:34:40.380Z,18.42
2022-10-31T13:37:17.360Z,17.58
2022-10-31T13:39:56.086Z,25.23
2022-10-31T13:42:30.821Z,23.90
2022-10-31T13:45:12.292Z,19.70
2022-10-31T13:47:38.901Z,18.35
2022-10-31T13:50:19.508Z,25.33
2022-10-31T13:52:47.774Z,21.98
2022-10-31T13:55:42.333Z,24.25
2022-10-31T13:58:27.647Z,28.88
2022-10-31T14:01:16.144Z,23.75
2022-10-31T14:06:39.534Z,23.08
2022-10-31T14:09:19.725Z,25.05
2022-10-31T14:11:48.162Z,29.45
2022-10-31T14:14:15.645Z,25.40
2022-10-31T14:16:45.163Z,31.80
2022-10-31T14:19:17.038Z,34.58
2022-10-31T14:21:45.454Z,38.08
2022-10-31T14:24:35.343Z,33.92
2022-10-31T14:27:04.383Z,35.35
2022-10-31T14:29:31.880Z,36.33
2022-10-31T14:32:05.305Z,34.22
2022-10-31T14:34:35.070Z,37.65
2022-10-31T14:37:35.476Z,37.47
2022-10-31T14:40:18.118Z,36.20
2022-10-31T14:43:02.791Z,39.45
2022-10-31T14:45:38.149Z,38.95
2022-10-31T14:48:15.203Z,33.33
2022-10-31T14:50:47.088Z,38.20
2022-10-31T14:53:19.276Z,43.15
2022-10-31T14:55:50.057Z,42.90
2022-10-31T14:58:21.176Z,30.98
2022-10-31T15:00:48.177Z,37.55
2022-10-31T15:03:17.643Z,36.00
2022-10-31T15:05:49.985Z,45.42
2022-10-31T15:08:30.073Z,37.47
2022-10-31T15:10:57.922Z,39.03
2022-10-31T15:13:24.465Z,42.55
2022-10-31T15:15:54.975Z,41.58
2022-10-31T15:18:24.274Z,33.13
2022-10-31T15:20:52.175Z,34.90
2022-10-31T15:23:25.145Z,34.50
2022-10-31T15:25:58.671Z,39.13
2022-10-31T15:28:26.990Z,32.70
2022-10-31T15:30:55.503Z,38.42
2022-10-31T15:33:25.334Z,35.15
2022-10-31T15:35:56.410Z,33.55
2022-10-31T15:38:22.888Z,34.58
2022-10-31T15:40:55.501Z,34.92
2022-10-31T15:43:22.515Z,32.63
2022-10-31T15:45:50.591Z,38.78
2022-10-31T15:48:18.976Z,31.92
2022-10-31T15:50:49.570Z,32.78
2022-10-31T15:53:19.977Z,41.13
2022-10-31T15:55:49.915Z,35.30
2022-10-31T15:58:17.804Z,33.53
2022-10-31T16:00:44.570Z,34.85
2022-10-31T16:03:26.715Z,34.83
2022-10-31T16:05:55.254Z,36.13
2022-10-31T16:08:25.127Z,32.13
2022-10-31T16:10:51.829Z,34.72
2022-10-31T16:13:18.453Z,33.03
2022-10-31T16:15:55.797Z,40.33
2022-10-31T16:18:37.227Z,34.28
2022-10-31T16:21:04.102Z,35.00
2022-10-31T16:23:30.635Z,32.05
2022-10-31T16:25:57.141Z,37.85
2022-10-31T16:28:28.295Z,37.03
2022-10-31T16:30:57.921Z,34.83
2022-10-31T16:33:27.943Z,30.85
2022-10-31T16:36:09.536Z,35.97
2022-10-31T16:38:42.500Z,38.60
2022-10-31T16:41:08.946Z,39.92
2022-10-31T16:43:35.672Z,37.03
2022-10-31T16:46:02.135Z,39.85
2022-10-31T16:48:28.607Z,37.05
2022-10-31T16:50:56.348Z,34.17
2022-10-31T16:53:22.918Z,34.83
2022-10-31T16:55:56.561Z,39.60
2022-10-31T17:00:51.112Z,36.90
2022-10-31T17:03:17.663Z,31.33
2022-10-31T17:05:44.505Z,36.33
2022-10-31T17:08:12.787Z,34.55
2022-10-31T17:10:40.498Z,37.03
2022-10-31T17:13:11.121Z,31.60
2022-10-31T17:15:41.227Z,28.80
2022-10-31T17:18:07.641Z,30.70
2022-10-31T17:20:34.059Z,36.60
2022-10-31T17:23:00.808Z,29.52
2022-10-31T17:25:30.406Z,31.58
2022-10-31T17:27:56.873Z,34.03
2022-10-31T17:30:33.452Z,34.20
2022-10-31T17:33:00.170Z,31.70
2022-10-31T17:35:26.923Z,34.78
2022-10-31T17:37:53.335Z,30.13
2022-10-31T17:40:21.656Z,28.63
2022-10-31T17:42:53.975Z,31.77
2022-10-31T17:45:21.657Z,35.05
2022-10-31T17:47:48.839Z,33.35
2022-10-31T17:50:19.270Z,29.95
2022-10-31T17:52:45.943Z,35.13
2022-10-31T17:55:12.908Z,35.75
2022-10-31T17:57:39.729Z,36.40
2022-10-31T18:00:11.750Z,33.53
2022-10-31T18:02:38.299Z,40.75
2022-10-31T18:05:05.638Z,36.33
2022-10-31T18:07:32.198Z,35.80
2022-10-31T18:09:58.878Z,32.03
2022-10-31T18:12:25.634Z,33.50
2022-10-31T18:14:52.068Z,34.28
2022-10-31T18:17:20.215Z,38.95
2022-10-31T18:19:46.718Z,32.60
2022-10-31T18:22:13.740Z,39.45
2022-10-31T18:24:40.193Z,36.60
2022-10-31T18:27:06.990Z,33.85
2022-10-31T18:29:33.586Z,33.78
2022-10-31T18:31:59.979Z,38.83
2022-10-31T18:34:27.713Z,34.22
2022-10-31T18:36:54.136Z,32.83
2022-10-31T18:39:20.503Z,36.45
2022-10-31T18:41:46.893Z,35.08
2022-10-31T18:44:13.310Z,33.63
2022-10-31T18:46:39.697Z,38.20
2022-10-31T18:49:06.078Z,37.53
2022-10-31T18:51:33.843Z,43.25
2022-10-31T18:54:01.215Z,44.63
2022-10-31T18:56:29.053Z,40.50
2022-10-31T18:58:55.484Z,52.08
2022-10-31T19:01:22.333Z,50.22
2022-10-31T19:03:53.051Z,55.15
2022-10-31T19:06:19.610Z,51.50
2022-10-31T19:08:47.366Z,52.08
2022-10-31T19:11:15.126Z,56.47
2022-10-31T19:13:42.572Z,59.58
2022-10-31T19:16:10.981Z,63.65
2022-10-31T19:18:38.392Z,68.35
2022-10-31T19:21:06.112Z,66.43
2022-10-31T19:23:32.542Z,74.10
2022-10-31T19:26:00.453Z,77.57
2022-10-31T19:28:29.473Z,78.57
2022-10-31T19:30:55.890Z,77.10
2022-10-31T19:33:22.441Z,84.85
2022-10-31T19:35:48.878Z,86.15
2022-10-31T19:38:15.265Z,86.90
2022-10-31T19:40:41.682Z,90.03
2022-10-31T19:43:09.648Z,92.70
2022-10-31T19:45:36.045Z,94.20
2022-10-31T19:48:02.831Z,93.72
2022-10-31T19:50:29.757Z,104.07
2022-10-31T19:52:56.196Z,102.43
2022-10-31T19:55:22.646Z,99.78
2022-10-31T19:58:01.330Z,100.30
2022-10-31T20:00:29.866Z,98.57
2022-10-31T20:02:56.270Z,92.20
2022-10-31T20:05:22.699Z,103.35
2022-10-31T20:07:49.114Z,99.20
2022-10-31T20:10:15.718Z,107.25
2022-10-31T20:12:42.127Z,95.70
2022-10-31T20:15:09.322Z,98.75
2022-10-31T20:17:37.130Z,96.63
2022-10-31T20:20:04.230Z,93.50
2022-10-31T20:22:30.717Z,97.68
2022-10-31T20:24:57.138Z,88.95
2022-10-31T20:27:23.868Z,90.10
2022-10-31T20:29:50.234Z,91.68
2022-10-31T20:32:16.813Z,86.25
2022-10-31T20:34:44.643Z,92.20
2022-10-31T20:37:11.106Z,87.75
2022-10-31T20:39:37.897Z,88.13
2022-10-31T20:42:05.218Z,88.57
2022-10-31T20:44:31.991Z,84.68
2022-10-31T20:46:58.691Z,82.55
2022-10-31T20:49:25.317Z,90.32
2022-10-31T20:51:53.066Z,86.03
2022-10-31T20:54:19.489Z,81.40
2022-10-31T20:56:45.994Z,86.75
2022-10-31T20:59:12.426Z,89.45
2022-10-31T21:01:39.071Z,85.70
2022-10-31T21:04:05.704Z,89.82
2022-10-31T21:06:32.149Z,89.57
2022-10-31T21:08:59.909Z,80.38
2022-10-31T21:11:27.791Z,83.32
2022-10-31T21:13:54.468Z,86.70
2022-10-31T21:16:22.845Z,88.22
2022-10-31T21:18:50.080Z,80.10
2022-10-31T21:21:18.704Z,83.15
2022-10-31T21:23:45.693Z,87.63
2022-10-31T21:26:16.070Z,86.40
2022-10-31T21:28:42.852Z,88.57
2022-10-31T21:31:11.070Z,90.03
2022-10-31T21:33:37.989Z,90.25
2022-10-31T21:36:05.590Z,92.38
2022-10-31T21:38:32.708Z,89.78
2022-10-31T21:40:59.835Z,84.97
2022-10-31T21:43:27.858Z,92.15
2022-10-31T21:45:54.384Z,84.90
2022-10-31T21:48:20.879Z,84.63
2022-10-31T21:50:47.299Z,91.03
2022-10-31T21:53:13.686Z,87.68
2022-10-31T21:55:40.115Z,82.40
2022-10-31T21:58:06.538Z,84.13
2022-10-31T22:00:34.271Z,83.82
2022-10-31T22:03:01.601Z,76.82
2022-10-31T22:05:28.042Z,69.13
2022-10-31T22:07:54.444Z,76.15
2022-10-31T22:10:20.841Z,82.47
2022-10-31T22:12:47.227Z,82.60
2022-10-31T22:15:14.090Z,82.68
2022-10-31T22:17:41.842Z,77.35
2022-10-31T22:20:09.211Z,75.07
2022-10-31T22:22:35.629Z,87.40
2022-10-31T22:25:02.014Z,73.70
2022-10-31T22:27:28.384Z,83.55
2022-10-31T22:29:56.651Z,72.18
2022-10-31T22:32:23.248Z,73.47
2022-10-31T22:34:50.962Z,72.07
2022-10-31T22:37:19.693Z,80.43
2022-10-31T22:39:46.389Z,74.63
2022-10-31T22:42:12.789Z,67.47
2022-10-31T22:44:39.206Z,68.32
2022-10-31T22:47:05.613Z,64.40
2022-10-31T22:49:32.009Z,66.10
2022-10-31T22:51:59.793Z,69.63
2022-10-31T22:54:26.534Z,58.92
2022-10-31T22:56:52.929Z,67.00
2022-10-31T22:59:19.386Z,65.35
2022-10-31T23:01:46.269Z,62.28
2022-10-31T23:04:13.747Z,61.28
2022-10-31T23:06:40.198Z,65.05
2022-10-31T23:09:08.886Z,67.78
2022-10-31T23:11:38.820Z,63.65
2022-10-31T23:14:07.037Z,65.32
2022-10-31T23:16:34.289Z,66.03
2022-10-31T23:19:01.795Z,61.85
2022-10-31T23:21:28.300Z,68.13
2022-10-31T23:23:55.375Z,73.75
2022-10-31T23:26:23.132Z,63.88
2022-10-31T23:28:49.568Z,65.97
2022-10-31T23:31:15.984Z,65.35
2022-10-31T23:33:42.407Z,64.18
2022-10-31T23:36:09.146Z,59.05
2022-10-31T23:38:35.536Z,58.38
2022-10-31T23:41:01.970Z,63.33
2022-10-31T23:43:29.707Z,61.40
2022-10-31T23:45:56.096Z,55.28
2022-10-31T23:48:22.485Z,61.20
2022-10-31T23:50:49.095Z,57.80
2022-10-31T23:53:15.501Z,57.75
2022-10-31T23:55:41.915Z,58.00
2022-10-31T23:58:08.319Z,63.63
